createdAt,value
2017-10-04T00:00:26.240Z,82.93
2017-10-04T00:02:53.635Z,82.77
2017-10-04T00:05:21.043Z,83.00
2017-10-04T00:07:48.464Z,83.00
2017-10-04T00:10:15.863Z,83.18
2017-10-04T00:12:43.263Z,83.11
2017-10-04T00:15:10.680Z,83.38
2017-10-04T00:17:38.078Z,83.65
2017-10-04T00:20:05.477Z,83.84
2017-10-04T00:22:32.891Z,83.87
2017-10-04T00:25:00.291Z,83.92
2017-10-04T00:27:27.687Z,83.97
2017-10-04T00:29:55.104Z,83.83
2017-10-04T00:32:22.504Z,84.06
2017-10-04T00:34:49.902Z,84.15
2017-10-04T00:37:17.331Z,84.26
2017-10-04T00:39:44.730Z,84.50
2017-10-04T00:42:12.130Z,84.60
2017-10-04T00:44:39.539Z,84.78
2017-10-04T00:47:06.943Z,84.92
2017-10-04T00:49:34.343Z,85.07
2017-10-04T00:52:01.785Z,85.18
2017-10-04T00:54:29.170Z,85.33
2017-10-04T00:56:56.570Z,85.28
2017-10-04T00:59:23.984Z,85.21
2017-10-04T01:01:51.385Z,85.28
2017-10-04T01:04:18.783Z,85.37
2017-10-04T01:06:46.203Z,85.53
2017-10-04T01:09:13.607Z,85.68
2017-10-04T01:11:41.007Z,85.91
2017-10-04T01:14:08.423Z,85.91
2017-10-04T01:16:36.216Z,85.99
2017-10-04T01:19:03.615Z,86.00
2017-10-04T01:21:31.035Z,86.00
2017-10-04T01:23:58.434Z,85.92
2017-10-04T01:26:25.834Z,85.98
2017-10-04T01:28:53.253Z,86.02
2017-10-04T01:31:20.659Z,86.07
2017-10-04T01:33:48.063Z,86.05
2017-10-04T01:36:15.498Z,86.17
2017-10-04T01:38:42.899Z,86.14
2017-10-04T01:41:10.302Z,86.08
2017-10-04T01:43:37.720Z,86.19
2017-10-04T01:46:05.116Z,86.27
2017-10-04T01:48:32.515Z,85.96
2017-10-04T01:50:59.935Z,86.24
2017-10-04T01:53:27.327Z,86.32
2017-10-04T01:55:54.718Z,86.45
2017-10-04T01:58:22.135Z,86.64
2017-10-04T02:00:49.534Z,86.78
2017-10-04T02:03:16.935Z,86.78
2017-10-04T02:05:44.349Z,86.76
2017-10-04T02:08:11.751Z,86.62
2017-10-04T02:10:39.150Z,86.44
2017-10-04T02:13:06.568Z,86.35
2017-10-04T02:15:33.970Z,86.40
2017-10-04T02:18:01.368Z,86.26
2017-10-04T02:20:28.783Z,86.22
2017-10-04T02:22:56.183Z,86.09
2017-10-04T02:25:23.583Z,86.20
2017-10-04T02:27:50.990Z,86.25
2017-10-04T02:30:18.392Z,86.35
2017-10-04T02:32:45.788Z,86.41
2017-10-04T02:35:13.200Z,86.45
2017-10-04T02:37:40.590Z,86.40
2017-10-04T02:40:07.991Z,86.36
2017-10-04T02:42:35.403Z,86.38
2017-10-04T02:45:02.799Z,86.37
2017-10-04T02:47:30.196Z,86.22
2017-10-04T02:49:57.613Z,86.14
2017-10-04T02:52:25.015Z,85.93
2017-10-04T02:54:52.407Z,85.60
2017-10-04T02:57:19.816Z,85.75
2017-10-04T02:59:47.220Z,85.79
2017-10-04T03:02:14.617Z,85.79
2017-10-04T03:04:42.032Z,85.63
2017-10-04T03:07:09.433Z,85.69
2017-10-04T03:09:36.831Z,85.59
2017-10-04T03:12:04.243Z,85.75
2017-10-04T03:14:31.639Z,85.99
2017-10-04T03:16:59.036Z,86.05
2017-10-04T03:19:26.444Z,86.09
2017-10-04T03:21:53.843Z,85.91
2017-10-04T03:24:21.243Z,85.96
2017-10-04T03:26:48.659Z,86.06
2017-10-04T03:29:16.059Z,86.12
2017-10-04T03:31:43.467Z,86.06
2017-10-04T03:34:10.882Z,86.15
2017-10-04T03:36:38.278Z,86.24
2017-10-04T03:39:05.681Z,86.37
2017-10-04T03:41:33.096Z,86.42
2017-10-04T03:44:00.491Z,86.46
2017-10-04T03:46:27.891Z,86.48
2017-10-04T03:48:55.308Z,86.38
2017-10-04T03:51:22.707Z,86.37
2017-10-04T03:53:50.107Z,86.38
2017-10-04T03:56:17.669Z,86.37
2017-10-04T03:58:45.079Z,86.37
2017-10-04T04:01:12.479Z,86.44
2017-10-04T04:03:39.887Z,86.22
2017-10-04T04:06:07.535Z,86.24
2017-10-04T04:08:34.928Z,86.33
2017-10-04T04:11:02.407Z,86.48
2017-10-04T04:13:29.796Z,86.56
2017-10-04T04:15:57.198Z,86.75
2017-10-04T04:18:24.608Z,86.92
2017-10-04T04:20:52.007Z,87.07
2017-10-04T04:23:19.407Z,87.20
2017-10-04T04:25:46.811Z,87.22
2017-10-04T04:28:14.212Z,86.84
2017-10-04T04:30:41.614Z,86.98
2017-10-04T04:33:09.040Z,87.03
2017-10-04T04:35:36.443Z,86.95
2017-10-04T04:41:03.517Z,86.59
2017-10-04T04:43:30.932Z,86.44
2017-10-04T04:45:58.329Z,86.29
2017-10-04T04:48:25.723Z,86.03
2017-10-04T04:50:53.146Z,85.23
2017-10-04T04:53:20.544Z,84.98
2017-10-04T04:55:47.954Z,85.04
2017-10-04T04:58:15.404Z,84.43
2017-10-04T05:00:42.807Z,84.36
2017-10-04T05:03:10.249Z,84.41
2017-10-04T05:05:37.695Z,84.65
2017-10-04T05:08:05.091Z,84.08
2017-10-04T05:10:32.500Z,84.53
2017-10-04T05:12:59.910Z,84.00
2017-10-04T05:15:27.319Z,84.05
2017-10-04T05:17:54.715Z,83.80
2017-10-04T05:20:22.140Z,83.68
2017-10-04T05:22:49.533Z,83.67
2017-10-04T05:25:16.931Z,83.50
2017-10-04T05:27:44.376Z,83.21
2017-10-04T05:30:11.768Z,82.87
2017-10-04T05:32:39.183Z,82.96
2017-10-04T05:35:06.631Z,82.64
2017-10-04T05:37:34.039Z,82.90
2017-10-04T05:40:01.456Z,82.76
2017-10-04T05:42:29.175Z,82.34
2017-10-04T05:44:56.564Z,81.89
2017-10-04T05:47:23.959Z,81.39
2017-10-04T05:49:51.380Z,81.71
2017-10-04T05:52:18.783Z,81.84
2017-10-04T05:54:46.200Z,82.57
2017-10-04T05:57:13.615Z,82.39
2017-10-04T05:59:41.027Z,81.79
2017-10-04T06:02:08.423Z,81.59
2017-10-04T06:04:35.851Z,81.08
2017-10-04T06:07:03.268Z,81.42
2017-10-04T06:09:30.672Z,81.40
2017-10-04T06:11:58.097Z,80.91
2017-10-04T06:14:25.552Z,81.25
2017-10-04T06:16:52.941Z,81.76
2017-10-04T06:19:20.371Z,82.01
2017-10-04T06:21:47.786Z,81.26
2017-10-04T06:24:15.190Z,81.73
2017-10-04T06:26:42.610Z,81.32
2017-10-04T06:29:09.999Z,81.21
2017-10-04T06:31:37.400Z,81.16
2017-10-04T06:34:04.837Z,81.02
2017-10-04T06:36:32.218Z,80.88
2017-10-04T06:38:59.615Z,79.96
2017-10-04T06:41:27.035Z,79.91
2017-10-04T06:43:54.443Z,79.79
2017-10-04T06:46:21.857Z,80.39
2017-10-04T06:48:49.277Z,80.11
2017-10-04T06:51:17.124Z,79.50
2017-10-04T06:53:44.520Z,79.02
2017-10-04T06:56:11.950Z,79.01
2017-10-04T06:58:39.331Z,79.19
2017-10-04T07:01:06.732Z,78.69
2017-10-04T07:03:34.155Z,79.09
2017-10-04T07:06:01.575Z,78.82
2017-10-04T07:08:28.980Z,78.00
2017-10-04T07:10:56.399Z,77.93
2017-10-04T07:13:23.907Z,77.41
2017-10-04T07:15:51.325Z,77.44
2017-10-04T07:18:18.759Z,77.39
2017-10-04T07:20:46.164Z,77.30
2017-10-04T07:23:13.557Z,77.74
2017-10-04T07:25:41.003Z,77.78
2017-10-04T07:28:08.401Z,77.79
2017-10-04T07:30:35.820Z,76.84
2017-10-04T07:33:03.254Z,76.86
2017-10-04T07:35:30.668Z,76.42
2017-10-04T07:37:58.095Z,76.61
2017-10-04T07:40:25.512Z,76.35
2017-10-04T07:42:52.947Z,75.72
2017-10-04T07:45:20.339Z,75.99
2017-10-04T07:47:47.791Z,75.55
2017-10-04T07:50:15.212Z,75.60
2017-10-04T07:52:42.668Z,75.15
2017-10-04T07:55:10.089Z,75.55
2017-10-04T07:57:37.490Z,75.75
2017-10-04T08:00:04.951Z,74.86
2017-10-04T08:02:32.382Z,75.40
2017-10-04T08:04:59.819Z,74.28
2017-10-04T08:07:27.226Z,74.83
2017-10-04T08:09:54.628Z,74.47
2017-10-04T08:12:22.047Z,74.21
2017-10-04T08:14:49.450Z,74.17
2017-10-04T08:17:16.917Z,73.99
2017-10-04T08:19:44.319Z,75.43
2017-10-04T08:22:11.744Z,74.59
2017-10-04T08:24:39.178Z,73.73
2017-10-04T08:27:06.571Z,73.08
2017-10-04T08:29:33.973Z,73.43
2017-10-04T08:32:01.422Z,73.48
2017-10-04T08:34:28.803Z,73.47
2017-10-04T08:36:56.207Z,73.74
2017-10-04T08:39:23.623Z,74.44
2017-10-04T08:41:51.035Z,72.48
2017-10-04T08:44:18.451Z,72.48
2017-10-04T08:46:45.873Z,72.25
2017-10-04T08:49:13.279Z,72.45
2017-10-04T08:51:40.686Z,73.19
2017-10-04T08:54:08.124Z,72.66
2017-10-04T08:56:35.530Z,71.63
2017-10-04T08:59:02.964Z,70.92
2017-10-04T09:01:30.387Z,70.88
2017-10-04T09:03:57.819Z,71.71
2017-10-04T09:06:25.218Z,71.55
2017-10-04T09:08:52.647Z,70.70
2017-10-04T09:11:20.048Z,70.61
2017-10-04T09:13:47.456Z,70.81
2017-10-04T09:16:14.876Z,71.03
2017-10-04T09:18:42.274Z,71.06
2017-10-04T09:21:09.696Z,71.35
2017-10-04T09:23:37.153Z,71.29
2017-10-04T09:26:04.573Z,70.79
2017-10-04T09:28:32.003Z,70.26
2017-10-04T09:30:59.473Z,70.37
2017-10-04T09:33:26.889Z,70.65
2017-10-04T09:35:54.319Z,70.28
2017-10-04T09:38:21.743Z,69.07
2017-10-04T09:40:49.169Z,69.69
2017-10-04T09:43:16.559Z,69.37
2017-10-04T09:45:43.978Z,68.66
2017-10-04T09:48:11.392Z,67.52
2017-10-04T09:50:38.803Z,66.56
2017-10-04T09:53:06.244Z,68.39
2017-10-04T09:55:33.639Z,68.84
2017-10-04T09:58:01.044Z,65.59
2017-10-04T10:00:28.471Z,66.55
2017-10-04T10:02:55.909Z,65.34
2017-10-04T10:05:23.295Z,66.13
2017-10-04T10:07:50.723Z,66.83
2017-10-04T10:10:18.171Z,66.12
2017-10-04T10:12:45.959Z,66.04
2017-10-04T10:15:13.043Z,66.33
2017-10-04T10:17:40.438Z,66.83
2017-10-04T10:20:07.848Z,67.02
2017-10-04T10:22:35.281Z,67.96
2017-10-04T10:25:02.689Z,67.20
2017-10-04T10:27:30.075Z,66.99
2017-10-04T10:29:57.518Z,67.22
2017-10-04T10:32:24.903Z,66.30
2017-10-04T10:34:52.350Z,64.39
2017-10-04T10:37:19.792Z,63.94
2017-10-04T10:39:47.195Z,64.60
2017-10-04T10:42:14.595Z,65.00
2017-10-04T10:44:42.028Z,65.02
2017-10-04T10:47:09.423Z,65.10
2017-10-04T10:49:36.829Z,65.22
2017-10-04T10:52:04.331Z,66.09
2017-10-04T10:54:31.740Z,64.80
2017-10-04T10:56:59.131Z,64.14
2017-10-04T10:59:26.550Z,64.79
2017-10-04T11:01:53.956Z,64.52
2017-10-04T11:04:21.360Z,63.78
2017-10-04T11:06:48.798Z,63.52
2017-10-04T11:09:16.249Z,64.35
2017-10-04T11:11:43.644Z,64.42
2017-10-04T11:14:11.080Z,64.71
2017-10-04T11:16:38.498Z,64.37
2017-10-04T11:19:05.907Z,64.71
2017-10-04T11:21:33.394Z,64.70
2017-10-04T11:24:00.788Z,63.95
2017-10-04T11:26:28.190Z,63.50
2017-10-04T11:28:55.678Z,63.14
2017-10-04T11:31:23.063Z,62.81
2017-10-04T11:33:50.487Z,60.34
2017-10-04T11:36:17.963Z,61.39
2017-10-04T11:38:45.375Z,61.36
2017-10-04T11:41:12.784Z,61.31
2017-10-04T11:43:40.219Z,62.56
2017-10-04T11:46:07.926Z,62.75
2017-10-04T11:48:35.316Z,62.34
2017-10-04T11:51:02.728Z,62.29
2017-10-04T11:53:30.139Z,61.73
2017-10-04T11:55:57.535Z,61.25
2017-10-04T11:58:24.947Z,62.13
2017-10-04T12:00:52.351Z,62.00
2017-10-04T12:03:19.743Z,62.41
2017-10-04T12:05:47.164Z,62.58
2017-10-04T12:08:14.555Z,62.68
2017-10-04T12:10:41.959Z,62.41
2017-10-04T12:13:09.368Z,62.01
2017-10-04T12:15:36.775Z,61.89
2017-10-04T12:18:04.167Z,61.69
2017-10-04T12:20:31.579Z,61.62
2017-10-04T12:22:58.979Z,60.52
2017-10-04T12:25:26.374Z,60.30
2017-10-04T12:27:53.787Z,59.87
2017-10-04T12:30:21.178Z,59.04
2017-10-04T12:32:48.570Z,57.98
2017-10-04T12:35:15.984Z,58.77
2017-10-04T12:37:43.385Z,57.35
2017-10-04T12:40:10.779Z,58.40
2017-10-04T12:42:38.187Z,57.37
2017-10-04T12:45:05.581Z,58.21
2017-10-04T12:47:32.975Z,59.77
2017-10-04T12:50:00.388Z,60.23
2017-10-04T12:52:27.774Z,60.21
2017-10-04T12:54:55.171Z,60.54
2017-10-04T12:57:22.588Z,60.15
2017-10-04T12:59:49.982Z,60.00
2017-10-04T13:02:17.375Z,61.08
2017-10-04T13:04:44.787Z,60.81
2017-10-04T13:07:12.188Z,59.94
2017-10-04T13:09:39.581Z,60.84
2017-10-04T13:12:06.983Z,60.03
2017-10-04T13:14:34.384Z,60.37
2017-10-04T13:17:01.790Z,59.22
2017-10-04T13:19:29.196Z,59.81
2017-10-04T13:21:56.611Z,58.29
2017-10-04T13:24:24.055Z,58.70
2017-10-04T13:26:51.455Z,58.47
2017-10-04T13:29:18.887Z,57.04
2017-10-04T13:31:46.310Z,58.03
2017-10-04T13:34:13.784Z,57.54
2017-10-04T13:36:41.208Z,58.23
2017-10-04T13:39:08.633Z,58.19
2017-10-04T13:41:36.055Z,58.30
2017-10-04T13:44:03.451Z,58.50
2017-10-04T13:46:30.859Z,58.13
2017-10-04T13:48:58.303Z,58.53
2017-10-04T13:51:25.747Z,59.59
2017-10-04T13:53:53.169Z,58.42
2017-10-04T13:56:20.563Z,58.74
2017-10-04T13:58:47.967Z,59.38
2017-10-04T14:01:15.406Z,58.97
2017-10-04T14:03:42.844Z,58.92
2017-10-04T14:06:10.272Z,59.83
2017-10-04T14:08:37.666Z,58.94
2017-10-04T14:11:05.069Z,58.60
2017-10-04T14:13:32.507Z,58.11
2017-10-04T14:15:59.895Z,58.04
2017-10-04T14:18:27.366Z,59.12
2017-10-04T14:20:54.767Z,58.42
2017-10-04T14:23:22.193Z,58.83
2017-10-04T14:25:49.607Z,58.78
2017-10-04T14:28:16.999Z,58.86
2017-10-04T14:30:44.423Z,59.64
2017-10-04T14:33:11.866Z,58.89
2017-10-04T14:35:39.315Z,58.67
2017-10-04T14:38:06.739Z,58.72
2017-10-04T14:40:34.175Z,59.40
2017-10-04T14:43:01.580Z,58.78
2017-10-04T14:45:29.022Z,59.00
2017-10-04T14:47:56.436Z,58.41
2017-10-04T14:50:23.824Z,59.04
2017-10-04T14:52:51.219Z,58.72
2017-10-04T14:55:18.694Z,58.87
2017-10-04T14:57:46.094Z,59.25
2017-10-04T15:00:13.499Z,59.52
2017-10-04T15:02:40.962Z,59.40
2017-10-04T15:05:08.356Z,59.81
2017-10-04T15:07:35.756Z,60.04
2017-10-04T15:10:03.185Z,59.96
2017-10-04T15:12:30.579Z,60.32
2017-10-04T15:14:57.986Z,59.94
2017-10-04T15:17:25.413Z,60.21
2017-10-04T15:19:52.805Z,60.41
2017-10-04T15:22:20.211Z,60.71
2017-10-04T15:24:47.627Z,61.28
2017-10-04T15:27:15.021Z,61.56
2017-10-04T15:29:42.427Z,61.09
2017-10-04T15:32:09.842Z,61.42
2017-10-04T15:34:37.276Z,61.01
2017-10-04T15:37:04.679Z,62.00
2017-10-04T15:39:32.094Z,62.00
2017-10-04T15:41:59.500Z,62.37
2017-10-04T15:44:26.902Z,62.50
2017-10-04T15:46:54.321Z,62.70
2017-10-04T15:49:21.715Z,62.63
2017-10-04T15:51:49.119Z,63.24
2017-10-04T15:54:16.600Z,62.71
2017-10-04T15:56:44.010Z,62.57
2017-10-04T15:59:11.413Z,63.33
2017-10-04T16:01:38.873Z,63.35
2017-10-04T16:04:06.259Z,63.20
2017-10-04T16:06:33.662Z,62.95
2017-10-04T16:09:01.081Z,63.38
2017-10-04T16:11:28.503Z,63.45
2017-10-04T16:13:55.923Z,63.59
2017-10-04T16:16:23.351Z,63.73
2017-10-04T16:18:50.748Z,64.04
2017-10-04T16:21:18.147Z,63.92
2017-10-04T16:23:45.574Z,64.10
2017-10-04T16:26:12.979Z,64.02
2017-10-04T16:28:40.404Z,64.24
2017-10-04T16:31:07.819Z,63.94
2017-10-04T16:33:35.240Z,64.54
2017-10-04T16:36:02.627Z,64.83
2017-10-04T16:38:30.043Z,64.41
2017-10-04T16:40:57.443Z,65.24
2017-10-04T16:43:24.871Z,64.62
2017-10-04T16:45:53.336Z,64.66
2017-10-04T16:48:20.785Z,65.14
2017-10-04T16:50:48.187Z,65.18
2017-10-04T16:53:15.606Z,65.15
2017-10-04T16:55:43.024Z,65.29
2017-10-04T16:58:10.417Z,65.33
2017-10-04T17:00:37.850Z,65.48
2017-10-04T17:03:05.259Z,65.43
2017-10-04T17:05:32.671Z,65.09
2017-10-04T17:08:00.091Z,65.82
2017-10-04T17:10:27.507Z,65.58
2017-10-04T17:12:54.911Z,65.56
2017-10-04T17:15:22.328Z,65.41
2017-10-04T17:17:49.762Z,65.87
2017-10-04T17:20:17.151Z,65.70
2017-10-04T17:22:44.816Z,65.60
2017-10-04T17:25:12.228Z,65.68
2017-10-04T17:27:39.628Z,65.62
2017-10-04T17:30:07.063Z,66.02
2017-10-04T17:32:34.476Z,66.22
2017-10-04T17:35:01.890Z,65.83
2017-10-04T17:37:29.290Z,65.84
2017-10-04T17:39:56.695Z,65.92
2017-10-04T17:42:24.099Z,65.84
2017-10-04T17:44:51.538Z,66.44
2017-10-04T17:47:18.962Z,65.82
2017-10-04T17:49:46.360Z,66.00
2017-10-04T17:52:13.793Z,65.55
2017-10-04T17:54:41.191Z,65.81
2017-10-04T17:57:11.679Z,65.56
2017-10-04T17:59:39.162Z,65.36
2017-10-04T18:02:06.644Z,65.45
2017-10-04T18:04:34.075Z,65.42
2017-10-04T18:07:01.517Z,65.38
2017-10-04T18:09:29.507Z,65.62
2017-10-04T18:11:56.971Z,65.25
2017-10-04T18:14:25.356Z,65.07
2017-10-04T18:16:52.784Z,65.14
2017-10-04T18:19:20.648Z,65.29
2017-10-04T18:21:48.090Z,65.47
2017-10-04T18:24:15.495Z,65.18
2017-10-04T18:26:42.912Z,65.15
2017-10-04T18:29:10.379Z,65.50
2017-10-04T18:31:37.796Z,65.44
2017-10-04T18:34:05.463Z,65.37
2017-10-04T18:36:32.886Z,65.63
2017-10-04T18:39:00.291Z,65.10
2017-10-04T18:41:28.954Z,65.32
2017-10-04T18:43:56.394Z,65.21
2017-10-04T18:46:23.860Z,65.33
2017-10-04T18:48:51.259Z,65.36
2017-10-04T18:51:21.282Z,65.45
2017-10-04T18:53:49.313Z,65.32
2017-10-04T18:56:16.742Z,65.27
2017-10-04T18:58:44.249Z,65.17
2017-10-04T19:01:11.912Z,65.06
2017-10-04T19:03:39.315Z,65.25
2017-10-04T19:06:08.095Z,65.45
2017-10-04T19:08:35.488Z,65.62
2017-10-04T19:11:02.891Z,66.11
2017-10-04T19:13:30.315Z,65.68
2017-10-04T19:15:57.716Z,65.86
2017-10-04T19:18:25.111Z,66.06
2017-10-04T19:20:52.528Z,66.21
2017-10-04T19:23:19.929Z,66.10
2017-10-04T19:25:47.326Z,66.23
2017-10-04T19:28:14.739Z,65.94
2017-10-04T19:30:42.143Z,66.98
2017-10-04T19:33:09.628Z,66.63
2017-10-04T19:35:37.060Z,66.98
2017-10-04T19:38:04.460Z,66.83
2017-10-04T19:40:31.877Z,66.83
2017-10-04T19:42:59.371Z,66.87
2017-10-04T19:45:26.772Z,66.69
2017-10-04T19:47:54.176Z,66.95
2017-10-04T19:50:21.593Z,66.86
2017-10-04T19:52:48.990Z,67.12
2017-10-04T19:55:16.401Z,66.58
2017-10-04T19:57:43.824Z,67.06
2017-10-04T20:00:11.237Z,67.22
2017-10-04T20:02:38.660Z,67.07
2017-10-04T20:05:06.093Z,67.51
2017-10-04T20:07:33.488Z,67.45
2017-10-04T20:10:00.889Z,67.66
2017-10-04T20:12:28.307Z,67.57
2017-10-04T20:14:55.705Z,67.42
2017-10-04T20:17:23.347Z,67.72
2017-10-04T20:19:50.771Z,67.78
2017-10-04T20:22:18.176Z,67.69
2017-10-04T20:24:45.577Z,67.67
2017-10-04T20:27:12.987Z,67.51
2017-10-04T20:29:40.387Z,67.81
2017-10-04T20:32:07.790Z,67.66
2017-10-04T20:34:35.191Z,67.52
2017-10-04T20:37:02.592Z,66.98
2017-10-04T20:39:29.986Z,66.82
2017-10-04T20:41:57.402Z,66.85
2017-10-04T20:44:24.808Z,66.79
2017-10-04T20:46:52.215Z,66.46
2017-10-04T20:49:19.643Z,66.42
2017-10-04T20:51:47.038Z,66.44
2017-10-04T20:54:14.431Z,66.13
2017-10-04T20:56:41.850Z,65.91
2017-10-04T20:59:09.251Z,66.47
2017-10-04T21:01:36.650Z,66.63
2017-10-04T21:04:04.063Z,66.48
2017-10-04T21:06:31.463Z,66.16
2017-10-04T21:08:58.857Z,66.33
2017-10-04T21:11:26.269Z,66.31
2017-10-04T21:13:53.707Z,66.11
2017-10-04T21:16:21.106Z,66.46
2017-10-04T21:18:48.524Z,66.45
2017-10-04T21:21:15.923Z,66.33
2017-10-04T21:23:43.347Z,66.34
2017-10-04T21:26:10.759Z,66.38
2017-10-04T21:28:38.163Z,66.61
2017-10-04T21:31:05.564Z,66.37
2017-10-04T21:33:32.978Z,66.62
2017-10-04T21:36:00.371Z,66.47
2017-10-04T21:38:27.770Z,66.85
2017-10-04T21:40:55.179Z,66.42
2017-10-04T21:43:22.603Z,66.54
2017-10-04T21:45:50.007Z,66.75
2017-10-04T21:48:17.428Z,66.47
2017-10-04T21:50:44.831Z,67.31
2017-10-04T21:53:12.235Z,68.25
2017-10-04T21:55:39.655Z,68.23
2017-10-04T21:58:07.055Z,68.93
2017-10-04T22:00:34.463Z,69.80
2017-10-04T22:03:01.874Z,70.03
2017-10-04T22:05:29.407Z,69.55
2017-10-04T22:07:56.815Z,69.79
2017-10-04T22:10:24.239Z,70.10
2017-10-04T22:12:51.635Z,70.58
2017-10-04T22:15:19.048Z,69.91
2017-10-04T22:17:46.466Z,70.65
2017-10-04T22:20:13.865Z,69.87
2017-10-04T22:22:41.263Z,69.87
2017-10-04T22:25:08.687Z,69.95
2017-10-04T22:27:36.083Z,69.58
2017-10-04T22:30:03.488Z,69.64
2017-10-04T22:32:30.896Z,69.91
2017-10-04T22:34:58.294Z,69.64
2017-10-04T22:37:25.687Z,69.81
2017-10-04T22:39:53.107Z,69.54
2017-10-04T22:42:20.503Z,69.19
2017-10-04T22:44:47.895Z,69.11
2017-10-04T22:47:15.317Z,69.44
2017-10-04T22:49:42.702Z,69.06
2017-10-04T22:52:10.108Z,69.02
2017-10-04T22:54:37.524Z,69.44
2017-10-04T22:57:04.918Z,69.02
2017-10-04T22:59:32.322Z,69.38
2017-10-04T23:01:59.731Z,69.24
2017-10-04T23:04:27.127Z,69.98
2017-10-04T23:06:54.523Z,69.97
2017-10-04T23:09:21.939Z,69.96
2017-10-04T23:11:49.330Z,69.57
2017-10-04T23:14:16.730Z,70.13
2017-10-04T23:16:44.154Z,69.92
2017-10-04T23:19:11.562Z,69.67
2017-10-04T23:21:38.970Z,69.44
2017-10-04T23:24:06.379Z,69.29
2017-10-04T23:26:33.775Z,69.58
2017-10-04T23:29:01.179Z,69.63
2017-10-04T23:31:28.599Z,69.82
2017-10-04T23:33:55.999Z,69.37
2017-10-04T23:36:23.406Z,69.73
2017-10-04T23:38:50.817Z,69.48
2017-10-04T23:41:18.215Z,69.16
2017-10-04T23:43:45.611Z,69.24
2017-10-04T23:46:13.021Z,68.69
2017-10-04T23:48:40.410Z,68.58
2017-10-04T23:51:07.823Z,68.61
2017-10-04T23:53:35.236Z,68.44
2017-10-04T23:56:02.634Z,68.37
2017-10-04T23:58:30.055Z,68.58
